Weather observations for the past three days for
Smithfield, Johnston County Airport
Metric (Imperial)
Date Time (edt) Wind (kph) Vis. (km) Weather Sky Cond. Temperature (ºC) Relative Humidity Wind Chill (°C) Heat Index (°C) Pressure Precipitation (cm)
Air Dwpt 6 hour altimeter (cm) sea level (mb) 1 hr 3 hr 6 hr
Max. Min.
31 09:35 N 6 16.09 Fair CLR 26 23 84% 28 76.5 0.0
31 09:15 Calm 16.09 Fair CLR 26 23 84% 28 76.5 0.0
31 08:55 Calm 16.09 Fair CLR 25 23 89% 26 76.5 0.0
31 08:35 Calm 16.09 Fair CLR 23 23 100% 76.5 0.0
31 08:15 Calm 16.09 Fair CLR 23 22 94% 76.5 0.0
31 07:55 Calm 16.09 Fair CLR 22 21 21.5 19.6 94% 76.5 0.0
31 07:35 Calm 9.66 Fog/Mist CLR 20 20 100% 76.5 0.0
31 07:15 Calm 11.27 Fair CLR 20 20 100% 76.5 0.0
31 06:55 Calm 16.09 A Few Clouds FEW001 21 20 94% 76.48 0.0
31 06:35 Calm 12.87 Mostly Cloudy BKN001 20 20 100% 76.48 0.0
31 06:15 Calm 6.44 Fog/Mist SCT001 20 20 100% 76.45 0.0
31 05:55 Calm 16.09 A Few Clouds FEW001 20 20 100% 76.45 0.0
31 05:35 Calm 4.83 Fog/Mist SCT001 20 20 100% 76.48 0.0
31 05:15 Calm 12.87 Fair CLR 20 20 100% 76.45 0.0
31 04:55 Calm 2.41 Fog/Mist CLR 20 20 100% 76.45 0.0
31 04:35 Calm 1.21 Fog/Mist SCT001 20 20 100% 76.45 0.0
31 04:15 Calm 4.02 Fog/Mist CLR 20 20 100% 76.45 0.0
31 03:55 Calm 14.48 Fair CLR 21 20 94% 76.48 0.0
31 03:35 Calm 16.09 Fair CLR 21 21 100% 76.48 0.0
31 03:15 Calm 14.48 A Few Clouds FEW001 21 21 100% 76.48 0.0
31 02:55 Calm 6.44 Fog/Mist CLR 21 21 100% 76.48 0.0
31 02:35 Calm 16.09 Fair CLR 21 21 100% 76.48 0.0
31 02:15 Calm 6.44 Fog/Mist FEW001 21 21 100% 76.5 0.0
31 01:55 Calm 12.87 Fair CLR 21 21 25 21.1 100% 76.5 0.0
31 01:35 Calm 16.09 A Few Clouds FEW002 21 21 100% 76.5 0.0
31 01:15 Calm 2.01 Fog/Mist SCT002 22 21 94% 76.5 0.0
31 00:55 Calm 8.05 Fog/Mist CLR 22 22 100% 76.5 0.0
31 00:35 Calm 8.05 Fog/Mist CLR 22 22 100% 76.53 0.0
31 00:15 Calm 16.09 Fair CLR 22 22 100% 76.53 0.0
30 23:55 Calm 16.09 Fair CLR 22 22 100% 76.53 0.0
30 23:35 Calm 11.27 Fog/Mist CLR 22 22 100% 76.53 0.0
30 23:15 Calm 12.87 Fair CLR 22 22 100% 76.53 0.0
30 22:55 Calm 16.09 Fair CLR 23 22 94% 76.53 0.0
30 22:35 Calm 16.09 Fair CLR 23 22 94% 76.53 0.0
30 22:15 Calm 16.09 Fair CLR 23 23 100% 76.5 0.0
30 21:55 Calm 16.09 Fair CLR 23 23 100% 76.5 0.0
30 21:35 Calm 16.09 Fair CLR 23 23 100% 76.48 0.0
30 21:15 Calm 16.09 Fair CLR 24 23 94% 23 76.48 0.0
30 20:55 Calm 16.09 Fair CLR 24 23 94% 23 76.48 0.0
30 20:35 Calm 16.09 Fair CLR 24 24 100% 23 76.48 0.0
30 20:15 Calm 16.09 Fair CLR 25 24 94% 26 76.48 0.0
30 19:55 Calm 16.09 Fair CLR 25 24 30.1 25.2 94% 26 76.48 0.0
30 19:35 Calm 16.09 Fair CLR 26 24 89% 28 76.48 0.0
30 19:15 Calm 16.09 Fair CLR 27 24 84% 30 76.48 0.0
30 18:55 Calm 16.09 Fair CLR 27 24 84% 30 76.5 0.0
30 18:35 Calm 16.09 Fair CLR 27 24 84% 30 76.5 0.0
30 18:15 Calm 16.09 Fair CLR 28 23 74% 31 76.5 0.0
30 17:55 Calm 16.09 Fair CLR 28 24 79% 32 76.5 0.0
30 17:35 Calm 16.09 Fair CLR 29 23 70% 33 76.5 0.0
30 17:15 Calm 16.09 Fair CLR 29 22 66% 32 76.5 0.0
30 16:55 Calm 16.09 Fair CLR 29 21 62% 31 76.5 0.0
30 16:35 Calm 16.09 Fair CLR 29 21 62% 31 76.48 0.0
30 16:15 Calm 16.09 Fair CLR 29 21 62% 31 76.5 0.0
30 15:55 Calm 16.09 Fair CLR 29 21 62% 31 76.53 0.0
30 15:35 Calm 16.09 A Few Clouds FEW040 29 21 62% 31 76.56 0.0
30 15:15 Calm 16.09 Mostly Cloudy BKN037 BKN044 29 21 62% 31 76.56 0.0
30 14:55 NW 6 16.09 Partly Cloudy SCT032 SCT042 29 21 62% 31 76.58 0.0
30 14:35 Calm 16.09 A Few Clouds FEW030 29 22 66% 32 76.58 0.0
30 14:15 Calm 16.09 Partly Cloudy SCT025 SCT031 29 21 62% 31 76.61 0.0
30 13:55 N 6 16.09 Overcast OVC025 28 21 29.2 22 66% 30 76.61 0.0
30 13:35 Calm 16.09 Mostly Cloudy BKN025 28 22 70% 31 76.63 0.0
30 13:15 Calm 16.09 Partly Cloudy SCT023 28 22 70% 31 76.66 0.0
30 12:55 N 6 16.09 A Few Clouds FEW021 28 22 70% 31 76.66 0.0
30 12:35 Calm 16.09 Mostly Cloudy BKN019 27 22 74% 29 76.66 0.0
30 12:15 Calm 16.09 Partly Cloudy SCT021 27 22 74% 29 76.68 0.0
30 11:55 Calm 16.09 Mostly Cloudy BKN023 27 22 74% 29 76.71 0.0
30 11:35 Calm 16.09 Overcast BKN013 OVC022 26 22 79% 28 76.71 0.0
30 11:15 NE 6 16.09 Mostly Cloudy BKN013 26 22 79% 28 76.71 0.0
30 10:55 Calm 16.09 Mostly Cloudy BKN011 25 22 83% 26 76.73 0.0
30 10:35 NE 9 16.09 Mostly Cloudy BKN007 25 22 83% 26 76.71 0.0
30 10:15 NE 6 16.09 Overcast OVC005 24 22 89% 24 76.73 0.0
30 09:55 Calm 16.09 Overcast OVC005 23 22 94% 76.73 0.0
30 09:35 Calm 16.09 Overcast OVC003 23 22 94% 76.76 0.0
30 09:15 Calm 14.48 Overcast OVC003 23 22 94% 76.76 0.0
30 08:55 Calm 12.87 Overcast OVC003 23 22 94% 76.73 0.0
30 08:35 NE 6 2.41 Fog/Mist OVC001 22 22 100% 76.73 0.0
30 08:15 NE 7 3.22 Fog/Mist OVC001 22 22 100% 76.71 0.0
30 07:55 Calm 2.01 Fog/Mist OVC001 22 22 22.1 20.8 100% 76.71 0.0
30 07:35 NE 7 0.80 Fog BKN001 22 22 100% 76.71 0.0
30 07:15 Calm 0.40 Fog VV002 22 22 100% 76.71 0.0
30 06:55 NE 7 0.80 Fog BKN001 22 22 100% 76.68 0.0
30 06:35 Calm 1.61 Fog/Mist OVC001 22 22 100% 76.68 0.0
30 06:15 Calm 1.21 Fog/Mist BKN001 22 22 100% 76.68 0.0
30 05:55 NE 7 0.80 Fog VV005 22 22 100% 76.66 0.0
30 05:35 NE 6 0.80 Fog VV005 22 22 100% 76.66 0.0
30 05:15 NE 6 0.40 Fog VV002 22 22 100% 76.63 0.0
30 04:55 Calm 0.40 Fog VV002 22 22 100% 76.63 0.0
30 04:35 NE 7 0.40 Fog VV002 22 22 100% 76.63 0.0
30 04:15 Calm 1.21 Fog/Mist BKN001 22 21 94% 76.63 0.0
30 03:55 Calm 12.87 Overcast OVC001 21 21 100% 76.66 0.0
30 03:35 Calm 11.27 Overcast OVC003 21 21 100% 76.66 0.0
30 03:15 NE 6 12.87 Mostly Cloudy BKN003 21 21 100% 76.66 0.0
30 02:55 Calm 16.09 A Few Clouds FEW003 21 21 100% 76.68 0.0
30 02:35 Calm 12.87 Fair CLR 21 21 100% 76.68 0.0
30 02:15 Calm 14.48 Fair CLR 21 21 100% 76.68 0.0
30 01:55 Calm 8.05 Fog/Mist CLR 21 21 24.5 20.5 100% 76.68 0.0
30 01:35 Calm 14.48 Fair CLR 21 21 100% 76.68 0.0
30 01:15 Calm 6.44 Fog/Mist CLR 21 20 94% 76.68 0.0
30 00:55 Calm 12.87 Fair CLR 21 21 100% 76.68 0.0
30 00:35 Calm 16.09 Fair CLR 21 21 100% 76.71 0.0
30 00:15 Calm 16.09 Fair CLR 21 21 100% 76.73 0.0
29 23:55 Calm 14.48 Fair CLR 21 21 100% 76.71 0.0
29 23:35 Calm 9.66 Fog/Mist CLR 21 21 100% 76.73 0.0
29 23:15 Calm 16.09 Fair CLR 22 21 94% 76.71 0.0
29 22:55 Calm 9.66 Fog/Mist CLR 21 21 100% 76.68 0.0
29 22:35 Calm 14.48 Fair CLR 22 21 94% 76.68 0.0
29 22:15 Calm 14.48 Fair CLR 22 21 94% 76.68 0.0
29 21:55 Calm 16.09 Fair CLR 22 22 100% 76.66 0.0
29 21:35 Calm 16.09 Fair CLR 22 22 100% 76.63 0.0
29 21:15 Calm 16.09 Fair CLR 22 22 100% 76.63 0.0
29 20:55 Calm 16.09 Fair CLR 23 22 94% 76.63 0.0
29 20:35 Calm 16.09 Fair CLR 23 22 94% 76.61 0.0
29 20:15 Calm 16.09 Fair CLR 24 22 89% 24 76.61 0.0
29 19:55 Calm 16.09 Fair CLR 24 22 25.8 23.9 89% 24 76.58 0.0
29 19:35 Calm 16.09 Fair CLR 25 23 89% 26 76.58 0.0
29 19:15 Calm 16.09 A Few Clouds FEW011 FEW018 25 23 89% 26 76.58 0.0
29 18:55 Calm 16.09 A Few Clouds FEW015 25 23 89% 26 76.56 0.0
29 18:35 NE 7 16.09 A Few Clouds FEW015 25 23 89% 26 76.53 0.0
29 18:15 Calm 16.09 Fair CLR 25 23 89% 26 76.56 0.0
29 17:55 Calm 16.09 Fair CLR 26 23 84% 28 76.56 0.0
29 17:35 E 6 16.09 Fair CLR 26 23 84% 28 76.56 0.0
29 17:15 E 7 16.09 Thunderstorm in Vicinity SCT120 26 23 84% 28 76.58 0.0
29 16:55 NE 9 16.09 Mostly Cloudy BKN120 26 23 84% 28 76.61 0.0
29 16:35 Vrbl 6 16.09 Overcast OVC120 25 23 89% 26 76.58 0.0
29 16:15 NE 9 16.09 Overcast OVC110 25 23 89% 26 76.61 0.0
29 15:55 NE 7 16.09 Mostly Cloudy BKN110 25 22 83% 26 76.61 0.0 0.03
29 15:35 E 9 16.09 Mostly Cloudy FEW080 BKN100 24 23 94% 23 76.61 0.0
29 15:15 NE 7 12.87 Overcast BKN080 OVC095 24 23 94% 23 76.63 0.0
29 14:55 Calm 16.09 Overcast OVC080 24 23 94% 23 76.61 0.0
29 14:35 Vrbl 7 16.09 Overcast FEW032 FEW048 OVC085 25 23 89% 26 76.63 0.0
29 14:15 NE 11 16.09 Overcast SCT006 BKN047 OVC100 24 23 94% 23 76.66 0.0
29 13:55 NE 13 16.09 Overcast SCT006 BKN035 OVC085 24 23 25.7 22 94% 23 76.68 0.0 0.03
29 13:35 NE 11 12.87 Overcast SCT042 BKN100 OVC120 24 23 94% 23 76.71 0.0
29 13:15 NE 9 16.09 Overcast SCT027 BKN038 OVC110 23 23 100% 76.71 0.0
29 12:55 Vrbl 7 16.09 Overcast BKN018 BKN028 OVC065 24 23 94% 23 76.71 0.0 0.2
29 12:35 NE 7 8.05 Rain Fog/Mist SCT017 BKN027 OVC065 23 22 94% 76.68 0.0
29 12:15 NE 17 12.87 Overcast BKN008 BKN013 OVC025 24 22 89% 24 76.66 0.0
29 11:55 Vrbl 7 16.09 Overcast OVC006 25 23 89% 26 76.66 0.0
29 11:35 Calm 16.09 Overcast OVC006 25 23 89% 26 76.66 0.0
29 11:15 NE 11 16.09 Overcast OVC008 25 23 89% 26 76.66 0.0
29 10:55 E 6 16.09 Overcast OVC010 26 23 84% 28 76.63 0.0
29 10:35 NE 9 16.09 Mostly Cloudy BKN010 BKN029 26 23 84% 28 76.63 0.0
29 10:15 NE 9 16.09 Mostly Cloudy SCT010 BKN029 26 23 84% 28 76.61 0.0
29 09:55 N 6 16.09 Mostly Cloudy BKN029 25 23 89% 26 76.58 0.0
29 09:35 NE 6 16.09 Overcast BKN029 OVC120 25 22 83% 26 76.58 0.0
29 09:15 NE 6 16.09 Partly Cloudy FEW029 SCT120 24 22 89% 24 76.58 0.0
29 08:55 Calm 16.09 A Few Clouds FEW120 23 22 94% 76.58 0.0
29 08:35 Calm 16.09 Mostly Cloudy BKN023 BKN120 23 22 94% 76.61 0.0
29 08:15 Calm 16.09 Mostly Cloudy BKN023 BKN060 23 22 94% 76.61 0.0
29 07:55 Calm 16.09 A Few Clouds FEW023 22 21 22.1 20.9 94% 76.58 0.0
29 07:35 Calm 16.09 A Few Clouds FEW110 22 21 94% 76.56 0.0
29 07:15 S 6 14.48 Fair CLR 22 21 94% 76.53 0.0
29 06:55 Calm 14.48 Fair CLR 21 21 100% 76.5 0.0
29 06:35 Calm 16.09 Fair CLR 22 21 94% 76.48 0.0
29 06:15 Calm 16.09 Fair CLR 21 21 100% 76.45 0.0
29 05:55 Calm 14.48 Fair CLR 21 21 100% 76.45 0.0
29 05:35 Calm 14.48 Fair CLR 21 21 100% 76.45 0.0
29 05:15 Calm 16.09 Fair CLR 22 21 94% 76.43 0.0
29 04:35 Calm 16.09 Partly Cloudy SCT120 22 21 94% 76.43 0.0
29 04:15 Calm 16.09 Fair CLR 22 21 94% 76.43 0.0
29 03:55 Calm 16.09 Fair CLR 22 21 94% 76.43 0.0
29 03:35 Calm 16.09 Fair CLR 22 21 94% 76.43 0.0
29 03:15 Calm 16.09 Fair CLR 22 21 94% 76.4 0.0
29 02:55 S 6 16.09 Fair CLR 22 21 94% 76.4 0.0
29 02:35 Calm 16.09 Fair CLR 22 21 94% 76.4 0.0
29 02:15 S 11 16.09 Fair CLR 22 21 94% 76.38 0.0
29 01:55 Calm 16.09 Fair CLR 22 21 25.9 21.8 94% 76.38 0.0
29 01:35 Calm 16.09 Fair CLR 23 21 89% 76.38 0.0
29 01:15 N 9 16.09 Fair CLR 22 21 94% 76.38 0.0
29 00:55 Calm 16.09 Fair CLR 22 21 94% 76.35 0.0
29 00:35 Calm 16.09 Fair CLR 23 21 89% 76.35 0.0
29 00:15 Calm 16.09 Fair CLR 23 21 89% 76.33 0.0
28 23:55 S 6 16.09 Fair CLR 23 22 94% 76.33 0.0
28 23:35 Calm 16.09 Fair CLR 23 22 94% 76.33 0.0
28 23:15 Calm 16.09 Fair CLR 23 22 94% 76.3 0.0
28 22:55 Calm 16.09 Fair CLR 23 22 94% 76.3 0.0
28 22:35 Calm 16.09 Fair CLR 23 22 94% 76.33 0.0
28 22:15 Calm 16.09 Fair CLR 24 21 83% 24 76.35 0.0
28 21:55 Calm 16.09 A Few Clouds FEW120 24 21 83% 24 76.35 0.0
28 21:35 Calm 16.09 A Few Clouds FEW120 25 21 79% 26 76.3 0.0
28 21:15 SW 11 16.09 Fair CLR 25 23 89% 26 76.25 0.0
28 20:55 SW 11 16.09 A Few Clouds FEW021 26 24 89% 28 76.28 0.0
28 20:35 SW 7 16.09 Fair CLR 25 24 94% 26 76.28 0.0
28 20:15 Calm 14.48 Fair CLR 25 25 100% 25 76.28 0.0
28 19:55 Calm 16.09 Fair CLR 26 25 31.3 25.8 94% 28 76.25 0.0
28 19:35 Calm 16.09 Fair CLR 26 25 94% 28 76.25 0.0
28 19:15 Calm 16.09 Fair CLR 27 25 89% 31 76.23 0.0
28 18:35 S 6 16.09 Fair CLR 27 25 89% 31 76.23 0.0
28 18:15 Calm 16.09 Fair CLR 28 25 84% 33 76.2 0.0
28 17:55 S 6 16.09 Fair CLR 28 25 84% 33 76.2 0.0
28 17:35 S 7 16.09 Fair CLR 28 24 79% 32 76.17 0.0
28 17:15 Calm 16.09 Fair CLR 27 25 89% 31 76.2 0.0
28 16:55 Calm 16.09 Fair CLR 28 25 84% 33 76.2 0.0
28 16:35 Calm 16.09 Fair CLR 29 25 79% 35 76.17 0.0
28 16:15 Calm 16.09 Fair CLR 30 24 70% 35 76.2 0.0
28 15:56 Calm 16.09 Fair CLR 30 23 66% 34 76.17 0.0
28 15:35 Calm 16.09 Partly Cloudy SCT030 SCT042 SCT065 30 23 66% 34 76.2 0.0
28 15:15 Calm 16.09 Overcast BKN030 OVC044 30 23 66% 34 76.2 0.0
28 14:55 Calm 16.09 Partly Cloudy FEW033 SCT044 30 23 66% 34 76.23 0.0
28 14:35 Calm 16.09 A Few Clouds FEW027 30 23 66% 34 76.23 0.0
28 14:15 W 7 16.09 Partly Cloudy SCT027 30 23 66% 34 76.25 0.0
28 13:55 Vrbl 6 16.09 Partly Cloudy SCT031 29 23 30.1 21.7 70% 33 76.25 0.0
28 13:35 Vrbl 7 16.09 Mostly Cloudy SCT025 BKN032 30 24 70% 35 76.25 0.0
28 13:15 Calm 16.09 Mostly Cloudy BKN021 BKN028 29 23 70% 33 76.28 0.0
28 12:55 Calm 16.09 Mostly Cloudy BKN017 28 23 74% 31 76.28 0.0
28 12:35 Calm 16.09 Overcast OVC017 27 23 79% 30 76.3 0.0
28 12:15 Calm 16.09 Overcast OVC013 27 23 79% 30 76.3 0.0
28 11:55 Vrbl 6 16.09 Overcast OVC011 28 23 74% 31 76.3 0.0
28 11:35 Calm 16.09 Overcast OVC011 26 23 84% 28 76.3 0.0
28 11:15 Calm 16.09 Overcast OVC011 26 23 84% 28 76.3 0.0
28 10:55 S 6 16.09 Overcast OVC009 26 23 84% 28 76.3 0.0
28 10:35 Calm 16.09 Overcast OVC007 25 23 89% 26 76.3 0.0
28 10:15 SW 9 16.09 Overcast OVC007 24 23 94% 23 76.28 0.0
Date Time (edt) Wind (kph) Vis. (km) Weather Sky Cond. Air Dwpt Max. Min. Relative Humidity Wind Chill (°C) Heat Index (°C) altimeter (cm) sea level (mb) 1 hr 3 hr 6 hr
6 hour
Temperature (ºC) Pressure Precipitation (cm)